Etusivu
METAR-TAF:

METAR-TAF

Lentoasemat :

Clermont-Ferrand, Ranska

Leveyspiiri: 45-47N, Pituuspiiri: 003-10E, korkeus merenpinnasta: 332 m

Tämänhetkinen sää

Tämä raportti tehtiin 43 minuuttia sitten, kello 00.00 UTC
Tuuli 1 kn eri suunnista
Lämpötila 19°C
Kosteus 56%
Ilmanpaine 1018 hPa
Näkyvyys 10 km tai enemmän
ei pilviä alle 1500 m:ssä eikä cumulonimbus-pilviä

METAR: LFLC 260000Z AUTO VRB01KT CAVOK 19/10 Q1018 NOSIG

Aika: 02:43 (00:43 UTC)

Sääennuste

Tämä raportti tehtiin 4 tuntia ja 43 minuuttia sitten, kello 20.00 UTC
Ennuste voimassa 25. päivästä klo 21 UTC - 26. päivään klo 21 UTC
Tuuli 3 kn eri suunnista
Näkyvyys 10 km tai enemmän
ei pilviä alle 1500 m:ssä eikä cumulonimbus-pilviä
Ajoittain
26. päivästä klo 10 UTC - 26. päivään klo 19 UTC
Tuuli 7 kn idästä/koillisesta

TAF: LFLC 252000Z 2521/2621 VRB03KT CAVOK TEMPO 2610/2619 06007KT

Säähavainnot ja -ennusteet yli 4000 lentoasemalta (METAR- ja TAF-raportit).

Käytössä olevat sääasemat on merkitty karttaan keltaisilla ja punaisilla pisteillä.

Aseta hiiri pisteen päälle nähdäksesi sääaseman nimen.

Klikkaa sitten nähdäksesi säähavainnot ja -ennusteet.

Kartan vaihtaminen: klikkaa mustalla rastilla varustettuja vihreitä pisteitä, niin voit zoomata sisään; viivalla varustettua vihreää pistettä, niin voit zoomata ulos tai vihreitä nuolia, niin pääset viereisille kartoille.


METAR-TAF: